createdAt,value
2019-04-07T00:00:11.825Z,6.15
2019-04-07T00:02:42.819Z,6.13
2019-04-07T00:05:14.820Z,6.09
2019-04-07T00:07:45.975Z,6.05
2019-04-07T00:10:17.010Z,6.03
2019-04-07T00:12:49.863Z,6.01
2019-04-07T00:15:20.923Z,5.99
2019-04-07T00:17:51.850Z,5.97
2019-04-07T00:20:23.946Z,5.94
2019-04-07T00:22:57.348Z,5.90
2019-04-07T00:25:28.762Z,5.87
2019-04-07T00:27:59.774Z,5.84
2019-04-07T00:30:30.835Z,5.80
2019-04-07T00:33:01.988Z,5.79
2019-04-07T00:35:33.620Z,5.74
2019-04-07T00:38:04.870Z,5.70
2019-04-07T00:40:37.084Z,5.68
2019-04-07T00:43:08.772Z,5.66
2019-04-07T00:45:40.517Z,5.63
2019-04-07T00:48:12.287Z,5.60
2019-04-07T00:50:43.704Z,5.56
2019-04-07T00:53:14.721Z,5.52
2019-04-07T00:55:45.721Z,5.50
2019-04-07T00:58:16.789Z,5.48
2019-04-07T01:00:50.408Z,5.45
2019-04-07T01:03:21.462Z,5.40
2019-04-07T01:05:52.544Z,5.39
2019-04-07T01:08:23.503Z,5.36
2019-04-07T01:10:54.562Z,5.31
2019-04-07T01:13:26.223Z,5.31
2019-04-07T01:15:57.421Z,5.29
2019-04-07T01:18:31.752Z,5.24
2019-04-07T01:21:03.862Z,5.08
2019-04-07T01:23:34.878Z,5.08
2019-04-07T01:26:06.410Z,5.04
2019-04-07T01:28:37.569Z,5.04
2019-04-07T01:31:08.799Z,5.03
2019-04-07T01:33:40.092Z,5.01
2019-04-07T01:36:11.293Z,5.00
2019-04-07T01:38:42.270Z,4.99
2019-04-07T01:41:15.273Z,4.99
2019-04-07T01:44:14.688Z,4.93
2019-04-07T01:46:56.830Z,4.93
2019-04-07T01:49:35.960Z,4.91
2019-04-07T01:52:08.727Z,4.88
2019-04-07T01:54:47.262Z,4.83
2019-04-07T01:57:20.178Z,4.80
2019-04-07T01:59:58.509Z,4.79
2019-04-07T02:02:45.509Z,4.78
2019-04-07T02:05:21.116Z,4.70
2019-04-07T02:07:56.780Z,4.73
2019-04-07T02:10:29.371Z,4.73
2019-04-07T02:13:02.154Z,4.69
2019-04-07T02:15:41.457Z,4.68
2019-04-07T02:18:14.801Z,4.68
2019-04-07T02:21:05.415Z,4.65
2019-04-07T02:23:53.625Z,4.63
2019-04-07T02:26:29.014Z,4.60
2019-04-07T02:29:18.071Z,4.59
2019-04-07T02:31:54.235Z,4.58
2019-04-07T02:34:33.854Z,4.55
2019-04-07T02:37:12.781Z,4.53
2019-04-07T02:39:48.822Z,4.52
2019-04-07T02:42:21.487Z,4.57
2019-04-07T02:45:10.996Z,4.55
2019-04-07T02:47:59.660Z,4.54
2019-04-07T02:50:35.243Z,4.51
2019-04-07T02:53:24.577Z,4.47
2019-04-07T02:56:13.508Z,4.47
2019-04-07T02:58:49.767Z,4.46
2019-04-07T03:01:26.349Z,4.39
2019-04-07T03:04:00.217Z,4.39
2019-04-07T03:06:52.534Z,4.38
2019-04-07T03:09:40.459Z,4.35
2019-04-07T03:12:18.971Z,4.28
2019-04-07T03:15:00.730Z,4.22
2019-04-07T03:17:49.826Z,4.24
2019-04-07T03:20:39.232Z,4.24
2019-04-07T03:23:27.265Z,4.25
2019-04-07T03:26:16.346Z,4.26
2019-04-07T03:28:52.609Z,4.26
2019-04-07T03:31:27.380Z,4.25
2019-04-07T03:34:09.756Z,4.24
2019-04-07T03:37:12.691Z,4.23
2019-04-07T03:39:22.294Z,4.20
2019-04-07T03:41:59.035Z,4.17
2019-04-07T03:44:34.790Z,4.15
2019-04-07T03:47:10.730Z,4.09
2019-04-07T03:49:49.669Z,4.13
2019-04-07T03:52:25.361Z,4.12
2019-04-07T03:54:58.880Z,4.09
2019-04-07T03:57:32.438Z,4.07
2019-04-07T04:00:26.155Z,4.04
2019-04-07T04:02:59.237Z,4.00
2019-04-07T04:05:39.444Z,3.98
2019-04-07T04:08:18.370Z,3.98
2019-04-07T04:10:53.890Z,3.97
2019-04-07T04:13:30.579Z,3.98
2019-04-07T04:16:03.438Z,3.99
2019-04-07T04:18:35.235Z,3.99
2019-04-07T04:21:07.023Z,3.99
2019-04-07T04:23:41.545Z,4.04
2019-04-07T04:26:10.951Z,4.04
2019-04-07T04:28:42.959Z,4.05
2019-04-07T04:31:15.483Z,4.08
2019-04-07T04:33:46.622Z,4.15
2019-04-07T04:36:17.839Z,4.22
2019-04-07T04:38:48.847Z,4.33
2019-04-07T04:41:20.913Z,4.46
2019-04-07T04:43:52.069Z,4.60
2019-04-07T04:46:26.627Z,4.60
2019-04-07T04:48:58.752Z,5.09
2019-04-07T04:51:36.981Z,5.09
2019-04-07T04:54:07.095Z,5.33
2019-04-07T04:56:39.516Z,5.64
2019-04-07T04:59:11.392Z,6.16
2019-04-07T05:01:45.130Z,6.16
2019-04-07T05:04:16.202Z,6.48
2019-04-07T05:06:49.094Z,6.80
2019-04-07T05:09:21.051Z,7.11
2019-04-07T05:11:52.825Z,7.39
2019-04-07T05:14:24.232Z,7.71
2019-04-07T05:16:56.477Z,8.02
2019-04-07T05:19:28.238Z,8.36
2019-04-07T05:21:59.864Z,8.64
2019-04-07T05:24:31.276Z,8.91
2019-04-07T05:27:03.113Z,9.23
2019-04-07T05:29:34.543Z,9.50
2019-04-07T05:32:05.770Z,9.76
2019-04-07T05:34:36.811Z,10.07
2019-04-07T05:37:08.716Z,10.35
2019-04-07T05:39:40.384Z,10.61
2019-04-07T05:42:12.429Z,10.83
2019-04-07T05:44:43.548Z,11.08
2019-04-07T05:47:15.593Z,11.39
2019-04-07T05:49:46.655Z,11.66
2019-04-07T05:52:18.101Z,11.91
2019-04-07T05:54:50.258Z,12.20
2019-04-07T05:57:22.250Z,12.46
2019-04-07T05:59:53.740Z,12.73
2019-04-07T06:02:27.327Z,12.91
2019-04-07T06:05:00.370Z,13.08
2019-04-07T06:07:51.477Z,13.26
2019-04-07T06:10:37.069Z,13.43
2019-04-07T06:13:12.940Z,13.70
2019-04-07T06:15:43.227Z,13.96
2019-04-07T06:18:15.323Z,14.15
2019-04-07T06:20:46.694Z,14.37
2019-04-07T06:23:22.102Z,14.48
2019-04-07T06:25:53.883Z,14.71
2019-04-07T06:28:26.614Z,14.95
2019-04-07T06:31:00.246Z,15.16
2019-04-07T06:33:30.775Z,15.35
2019-04-07T06:36:01.938Z,15.50
2019-04-07T06:38:34.872Z,15.68
2019-04-07T06:41:06.169Z,15.89
2019-04-07T06:43:39.829Z,16.05
2019-04-07T06:46:14.844Z,16.26
2019-04-07T06:49:08.912Z,16.47
2019-04-07T06:51:43.679Z,16.54
2019-04-07T06:54:33.001Z,16.69
2019-04-07T06:57:09.429Z,16.82
2019-04-07T06:59:45.700Z,16.98
2019-04-07T07:02:16.505Z,17.16
2019-04-07T07:04:57.177Z,17.25
2019-04-07T07:07:47.777Z,17.25
2019-04-07T07:10:26.867Z,17.41
2019-04-07T07:12:53.549Z,17.58
2019-04-07T07:15:26.779Z,17.71
2019-04-07T07:18:02.550Z,17.79
2019-04-07T07:20:47.371Z,17.68
2019-04-07T07:23:20.038Z,17.28
2019-04-07T07:25:51.901Z,17.30
2019-04-07T07:28:23.689Z,17.32
2019-04-07T07:30:55.626Z,17.28
2019-04-07T07:33:26.984Z,17.30
2019-04-07T07:35:58.320Z,17.54
2019-04-07T07:38:32.145Z,17.73
2019-04-07T07:41:03.619Z,17.21
2019-04-07T07:43:34.974Z,17.29
2019-04-07T07:46:06.809Z,17.30
2019-04-07T07:48:37.925Z,17.24
2019-04-07T07:51:12.866Z,17.17
2019-04-07T07:53:42.698Z,16.93
2019-04-07T07:56:14.383Z,16.85
2019-04-07T07:58:46.084Z,16.66
2019-04-07T08:01:17.915Z,16.79
2019-04-07T08:03:51.715Z,16.87
2019-04-07T08:06:22.533Z,16.41
2019-04-07T08:08:53.729Z,15.84
2019-04-07T08:11:25.676Z,15.96
2019-04-07T08:13:58.130Z,15.77
2019-04-07T08:16:31.076Z,15.89
2019-04-07T08:19:02.802Z,15.65
2019-04-07T08:21:34.811Z,15.58
2019-04-07T08:24:05.887Z,15.15
2019-04-07T08:26:36.897Z,15.27
2019-04-07T08:29:08.758Z,15.56
2019-04-07T08:31:39.913Z,15.56
2019-04-07T08:34:11.033Z,15.75
2019-04-07T08:36:44.479Z,15.88
2019-04-07T08:39:22.984Z,16.04
2019-04-07T08:41:48.439Z,16.01
2019-04-07T08:44:19.455Z,16.21
2019-04-07T08:46:50.833Z,16.19
2019-04-07T08:49:24.160Z,16.23
2019-04-07T08:51:56.097Z,16.16
2019-04-07T08:54:27.637Z,16.19
2019-04-07T08:56:59.182Z,16.02
2019-04-07T08:59:30.342Z,16.01
2019-04-07T09:02:01.961Z,15.92
2019-04-07T09:04:32.984Z,15.90
2019-04-07T09:07:05.202Z,15.99
2019-04-07T09:09:40.381Z,16.05
2019-04-07T09:12:10.375Z,16.23
2019-04-07T09:14:41.948Z,16.23
2019-04-07T09:17:14.912Z,16.15
2019-04-07T09:19:47.698Z,16.08
2019-04-07T09:22:29.718Z,16.25
2019-04-07T09:25:06.266Z,16.28
2019-04-07T09:27:46.039Z,16.29
2019-04-07T09:30:30.839Z,16.25
2019-04-07T09:33:03.449Z,15.95
2019-04-07T09:35:48.672Z,15.93
2019-04-07T09:38:24.963Z,16.01
2019-04-07T09:40:57.227Z,16.03
2019-04-07T09:43:33.467Z,16.11
2019-04-07T09:46:09.333Z,16.17
2019-04-07T09:48:56.670Z,16.11
2019-04-07T09:51:46.218Z,16.00
2019-04-07T09:54:37.871Z,16.11
2019-04-07T09:57:16.864Z,16.20
2019-04-07T09:59:52.491Z,16.06
2019-04-07T10:02:33.577Z,16.08
2019-04-07T10:05:21.576Z,15.97
2019-04-07T10:08:07.160Z,16.04
2019-04-07T10:10:56.047Z,16.15
2019-04-07T10:13:31.782Z,16.22
2019-04-07T10:16:10.502Z,16.30
2019-04-07T10:18:42.929Z,16.24
2019-04-07T10:21:19.622Z,16.28
2019-04-07T10:24:08.780Z,16.20
2019-04-07T10:26:57.688Z,16.28
2019-04-07T10:29:34.051Z,16.32
2019-04-07T10:32:15.782Z,16.37
2019-04-07T10:35:01.050Z,16.40
2019-04-07T10:37:34.427Z,16.37
2019-04-07T10:40:25.467Z,16.44
2019-04-07T10:43:00.943Z,16.44
2019-04-07T10:45:45.920Z,16.19
2019-04-07T10:48:24.289Z,16.20
2019-04-07T10:51:07.915Z,16.27
2019-04-07T10:53:51.456Z,16.32
2019-04-07T10:56:30.830Z,16.30
2019-04-07T10:59:05.531Z,16.16
2019-04-07T11:01:44.481Z,16.01
2019-04-07T11:04:19.765Z,16.07
2019-04-07T11:06:52.387Z,15.96
2019-04-07T11:09:28.381Z,15.75
2019-04-07T11:12:16.185Z,15.72
2019-04-07T11:15:07.143Z,15.58
2019-04-07T11:17:39.659Z,15.53
2019-04-07T11:20:13.235Z,15.68
2019-04-07T11:23:04.407Z,15.64
2019-04-07T11:25:41.216Z,15.58
2019-04-07T11:28:29.166Z,15.45
2019-04-07T11:31:05.676Z,15.44
2019-04-07T11:33:50.504Z,15.46
2019-04-07T11:36:38.573Z,15.46
2019-04-07T11:39:14.060Z,15.47
2019-04-07T11:41:55.789Z,15.43
2019-04-07T11:44:31.277Z,15.42
2019-04-07T11:47:06.883Z,15.44
2019-04-07T11:49:58.194Z,15.37
2019-04-07T11:52:31.009Z,15.31
2019-04-07T11:55:03.575Z,15.35
2019-04-07T11:57:36.158Z,15.50
2019-04-07T12:00:26.967Z,15.46
2019-04-07T12:03:03.968Z,15.37
2019-04-07T12:05:52.576Z,15.48
2019-04-07T12:08:35.081Z,15.49
2019-04-07T12:11:14.867Z,15.55
2019-04-07T12:14:00.847Z,15.57
2019-04-07T12:16:38.016Z,15.60
2019-04-07T12:19:14.453Z,15.53
2019-04-07T12:21:53.232Z,15.56
2019-04-07T12:24:42.217Z,15.72
2019-04-07T12:27:21.676Z,15.68
2019-04-07T12:29:55.040Z,15.78
2019-04-07T12:32:27.600Z,15.77
2019-04-07T12:35:04.230Z,15.64
2019-04-07T12:37:48.909Z,15.75
2019-04-07T12:40:22.899Z,15.79
2019-04-07T12:42:59.240Z,15.75
2019-04-07T12:45:31.971Z,15.75
2019-04-07T12:48:06.305Z,15.71
2019-04-07T12:50:39.784Z,15.86
2019-04-07T12:53:25.149Z,15.80
2019-04-07T12:56:13.395Z,15.74
2019-04-07T12:59:02.279Z,15.76
2019-04-07T13:01:34.863Z,15.82
2019-04-07T13:04:26.444Z,15.87
2019-04-07T13:07:08.941Z,15.80
2019-04-07T13:10:00.295Z,15.86
2019-04-07T13:12:30.949Z,15.84
2019-04-07T13:15:08.541Z,15.76
2019-04-07T13:17:43.496Z,15.80
2019-04-07T13:20:32.174Z,15.83
2019-04-07T13:23:23.830Z,15.78
2019-04-07T13:26:03.386Z,15.73
2019-04-07T13:28:39.080Z,15.74
2019-04-07T13:31:27.585Z,15.70
2019-04-07T13:34:01.936Z,15.70
2019-04-07T13:36:53.296Z,15.78
2019-04-07T13:39:45.228Z,15.75
2019-04-07T13:42:23.042Z,15.66
2019-04-07T13:45:11.835Z,15.71
2019-04-07T13:47:57.731Z,15.65
2019-04-07T13:50:46.917Z,15.61
2019-04-07T13:53:36.713Z,15.62
2019-04-07T13:56:17.618Z,15.56
2019-04-07T13:58:53.365Z,15.45
2019-04-07T14:01:26.769Z,15.50
2019-04-07T14:04:00.093Z,15.34
2019-04-07T14:06:36.209Z,15.25
2019-04-07T14:09:21.162Z,15.11
2019-04-07T14:12:10.479Z,15.11
2019-04-07T14:14:57.942Z,15.00
2019-04-07T14:17:30.850Z,14.97
2019-04-07T14:20:16.129Z,14.92
2019-04-07T14:22:48.774Z,14.87
2019-04-07T14:25:41.872Z,14.88
2019-04-07T14:28:14.361Z,14.89
2019-04-07T14:30:53.335Z,14.91
2019-04-07T14:33:30.710Z,14.91
2019-04-07T14:36:07.325Z,14.85
2019-04-07T14:38:56.324Z,14.97
2019-04-07T14:41:43.967Z,15.00
2019-04-07T14:44:16.646Z,14.93
2019-04-07T14:47:04.103Z,14.91
2019-04-07T14:49:39.408Z,14.82
2019-04-07T14:52:11.963Z,14.82
2019-04-07T14:55:01.449Z,14.72
2019-04-07T14:57:41.530Z,14.80
2019-04-07T15:00:26.948Z,14.66
2019-04-07T15:02:57.909Z,14.56
2019-04-07T15:05:34.135Z,14.48
2019-04-07T15:08:16.308Z,14.52
2019-04-07T15:10:50.094Z,14.55
2019-04-07T15:13:25.765Z,14.46
2019-04-07T15:16:00.587Z,14.43
2019-04-07T15:18:32.026Z,14.45
2019-04-07T15:21:04.625Z,14.24
2019-04-07T15:23:35.700Z,14.24
2019-04-07T15:26:06.771Z,14.29
2019-04-07T15:28:38.446Z,14.31
2019-04-07T15:31:10.562Z,14.31
2019-04-07T15:33:42.384Z,14.20
2019-04-07T15:36:17.378Z,14.23
2019-04-07T15:38:46.410Z,14.24
2019-04-07T15:41:19.053Z,14.21
2019-04-07T15:43:50.218Z,14.22
2019-04-07T15:46:22.514Z,14.19
2019-04-07T15:48:55.736Z,14.15
2019-04-07T15:51:26.408Z,14.18
2019-04-07T15:53:57.422Z,14.14
2019-04-07T15:56:28.462Z,14.07
2019-04-07T15:59:01.994Z,14.04
2019-04-07T16:01:33.738Z,14.00
2019-04-07T16:04:14.741Z,14.01
2019-04-07T16:06:48.130Z,13.98
2019-04-07T16:09:33.271Z,13.94
2019-04-07T16:12:14.530Z,13.96
2019-04-07T16:14:48.039Z,13.91
2019-04-07T16:17:21.106Z,13.89
2019-04-07T16:19:54.441Z,13.86
2019-04-07T16:22:25.690Z,13.79
2019-04-07T16:24:57.286Z,13.81
2019-04-07T16:27:28.333Z,13.79
2019-04-07T16:29:59.233Z,13.75
2019-04-07T16:32:31.011Z,13.71
2019-04-07T16:35:02.045Z,13.63
2019-04-07T16:37:33.591Z,13.57
2019-04-07T16:40:10.416Z,13.57
2019-04-07T16:42:39.341Z,13.49
2019-04-07T16:45:13.750Z,13.40
2019-04-07T16:47:44.018Z,13.31
2019-04-07T16:50:18.110Z,13.28
2019-04-07T16:52:48.418Z,13.21
2019-04-07T16:55:34.880Z,13.21
2019-04-07T16:58:06.692Z,13.17
2019-04-07T17:00:38.399Z,13.01
2019-04-07T17:03:10.045Z,13.02
2019-04-07T17:05:41.193Z,12.97
2019-04-07T17:08:12.849Z,12.89
2019-04-07T17:10:43.971Z,12.80
2019-04-07T17:13:20.539Z,12.75
2019-04-07T17:15:48.065Z,12.69
2019-04-07T17:18:41.105Z,12.61
2019-04-07T17:21:16.551Z,12.57
2019-04-07T17:23:53.165Z,12.48
2019-04-07T17:26:23.533Z,12.41
2019-04-07T17:28:56.714Z,12.37
2019-04-07T17:31:28.078Z,12.30
2019-04-07T17:34:03.950Z,12.26
2019-04-07T17:36:34.345Z,12.19
2019-04-07T17:39:22.808Z,12.13
2019-04-07T17:41:55.303Z,12.08
2019-04-07T17:44:28.624Z,12.00
2019-04-07T17:47:13.711Z,11.83
2019-04-07T17:50:05.568Z,11.71
2019-04-07T17:52:41.662Z,11.63
2019-04-07T17:55:18.736Z,11.57
2019-04-07T17:57:57.588Z,11.44
2019-04-07T18:00:36.307Z,11.27
2019-04-07T18:03:11.954Z,11.04
2019-04-07T18:05:46.099Z,10.89
2019-04-07T18:08:28.318Z,10.77
2019-04-07T18:11:01.064Z,10.67
2019-04-07T18:13:45.025Z,10.61
2019-04-07T18:16:15.063Z,10.52
2019-04-07T18:18:47.681Z,10.50
2019-04-07T18:21:21.134Z,10.46
2019-04-07T18:24:01.376Z,10.44
2019-04-07T18:26:40.484Z,10.40
2019-04-07T18:29:14.917Z,10.38
2019-04-07T18:31:47.535Z,10.33
2019-04-07T18:34:27.465Z,10.31
2019-04-07T18:37:18.760Z,10.28
2019-04-07T18:40:03.399Z,10.26
2019-04-07T18:42:54.368Z,10.24
2019-04-07T18:45:32.753Z,10.21
2019-04-07T18:48:22.755Z,10.16
2019-04-07T18:51:13.252Z,10.11
2019-04-07T18:54:04.170Z,10.04
2019-04-07T18:56:41.682Z,9.96
2019-04-07T18:59:23.486Z,9.88
2019-04-07T19:02:14.872Z,9.81
2019-04-07T19:04:51.224Z,9.74
2019-04-07T19:07:27.282Z,9.70
2019-04-07T19:10:08.698Z,9.65
2019-04-07T19:12:41.028Z,9.61
2019-04-07T19:15:13.978Z,9.57
2019-04-07T19:18:09.882Z,9.52
2019-04-07T19:21:14.045Z,9.49
2019-04-07T19:24:10.684Z,9.43
2019-04-07T19:26:54.644Z,9.37
2019-04-07T19:29:46.219Z,9.31
2019-04-07T19:32:20.859Z,9.26
2019-04-07T19:35:11.511Z,9.19
2019-04-07T19:37:50.667Z,9.14
2019-04-07T19:40:32.369Z,9.04
2019-04-07T19:43:18.062Z,8.96
2019-04-07T19:45:55.145Z,8.86
2019-04-07T19:48:31.088Z,8.78
2019-04-07T19:51:03.843Z,8.71
2019-04-07T19:53:55.706Z,8.66
2019-04-07T19:56:35.144Z,8.59
2019-04-07T19:59:14.574Z,8.53
2019-04-07T20:01:50.362Z,8.48
2019-04-07T20:04:32.733Z,8.43
2019-04-07T20:07:17.948Z,8.35
2019-04-07T20:10:03.101Z,8.28
2019-04-07T20:12:47.932Z,8.21
2019-04-07T20:15:43.140Z,8.15
2019-04-07T20:18:34.110Z,8.09
2019-04-07T20:21:08.506Z,8.04
2019-04-07T20:23:43.994Z,7.97
2019-04-07T20:26:22.092Z,7.95
2019-04-07T20:29:06.541Z,7.90
2019-04-07T20:31:40.813Z,7.86
2019-04-07T20:34:19.319Z,7.80
2019-04-07T20:37:08.147Z,7.72
2019-04-07T20:39:41.254Z,7.59
2019-04-07T20:42:31.089Z,7.51
2019-04-07T20:45:14.216Z,7.48
2019-04-07T20:47:44.657Z,7.45
2019-04-07T20:50:20.188Z,7.40
2019-04-07T20:53:10.083Z,7.39
2019-04-07T20:55:45.266Z,7.36
2019-04-07T20:58:48.725Z,7.31
2019-04-07T21:01:44.559Z,7.26
2019-04-07T21:07:35.424Z,7.15
2019-04-07T21:10:11.188Z,7.09
2019-04-07T21:12:45.505Z,7.05
2019-04-07T21:15:30.379Z,7.01
2019-04-07T21:18:15.978Z,6.98
2019-04-07T21:21:11.937Z,6.97
2019-04-07T21:23:59.568Z,6.97
2019-04-07T21:26:48.362Z,6.95
2019-04-07T21:29:28.104Z,6.94
2019-04-07T21:32:18.983Z,6.93
2019-04-07T21:35:08.683Z,6.91
2019-04-07T21:37:51.909Z,6.91
2019-04-07T21:40:39.563Z,6.88
2019-04-07T21:43:20.083Z,6.86
2019-04-07T21:45:54.448Z,6.86
2019-04-07T21:48:44.232Z,6.83
2019-04-07T21:51:33.395Z,6.84
2019-04-07T21:54:07.722Z,6.82
2019-04-07T21:56:46.123Z,6.80
2019-04-07T21:59:37.441Z,6.79
2019-04-07T22:02:19.453Z,6.76
2019-04-07T22:05:18.094Z,6.72
2019-04-07T22:07:53.822Z,6.68
2019-04-07T22:10:25.682Z,6.65
2019-04-07T22:13:00.702Z,6.61
2019-04-07T22:15:42.124Z,6.58
2019-04-07T22:18:06.290Z,6.56
2019-04-07T22:20:34.972Z,6.52
2019-04-07T22:23:09.304Z,6.47
2019-04-07T22:25:52.341Z,6.44
2019-04-07T22:28:27.650Z,6.37
2019-04-07T22:30:57.275Z,6.28
2019-04-07T22:33:30.901Z,6.22
2019-04-07T22:36:01.771Z,6.18
2019-04-07T22:38:33.639Z,6.18
2019-04-07T22:41:06.701Z,6.17
2019-04-07T22:43:37.499Z,6.16
2019-04-07T22:46:17.555Z,6.12
2019-04-07T22:48:41.798Z,6.15
2019-04-07T22:51:13.782Z,6.12
2019-04-07T22:53:45.549Z,6.12
2019-04-07T22:56:18.102Z,6.07
2019-04-07T22:58:52.004Z,6.04
2019-04-07T23:01:23.126Z,5.96
2019-04-07T23:03:54.779Z,5.91
2019-04-07T23:06:26.630Z,5.86
2019-04-07T23:08:57.634Z,5.72
2019-04-07T23:11:29.970Z,5.69
2019-04-07T23:14:01.125Z,5.68
2019-04-07T23:16:36.003Z,5.67
2019-04-07T23:19:07.566Z,5.67
2019-04-07T23:21:39.705Z,5.65
2019-04-07T23:24:11.480Z,5.62
2019-04-07T23:26:42.622Z,5.62
2019-04-07T23:29:22.167Z,5.58
2019-04-07T23:31:57.633Z,5.55
2019-04-07T23:34:36.670Z,5.53
2019-04-07T23:37:12.359Z,5.53
2019-04-07T23:39:44.137Z,5.50
2019-04-07T23:42:15.743Z,5.49
2019-04-07T23:44:58.656Z,5.45
2019-04-07T23:47:37.111Z,5.42
2019-04-07T23:50:09.141Z,5.39
2019-04-07T23:52:41.151Z,5.37
2019-04-07T23:55:12.912Z,5.36
2019-04-07T23:57:44.982Z,5.34
